Time;durP1;ratioP1;P1;durP2;ratioP2;P2;SDS_P1;SDS_P2;PMS_P1;PMS_P2;Temp;Humidity;BMP_temperature;BMP_pressure;BME280_temperature;BME280_humidity;BME280_pressure;Samples;Min_cycle;Max_cycle;Signal;HPM_P1;HPM_P2
2022/08/10 00:00:19;;;;;;;3.65;2.20;;;16.30;99.90;;;;;;6144345;23;20084;-89
2022/08/10 00:02:46;;;;;;;5.18;2.50;;;16.30;99.90;;;;;;6119614;23;20010;-88
2022/08/10 00:05:12;;;;;;;5.97;2.20;;;16.20;99.90;;;;;;6146640;23;20025;-89
2022/08/10 00:07:37;;;;;;;8.68;2.88;;;16.20;99.90;;;;;;6145950;22;20014;-88
2022/08/10 00:10:04;;;;;;;3.85;2.30;;;16.20;99.90;;;;;;6144266;23;20070;-87
2022/08/10 00:12:29;;;;;;;5.82;2.70;;;16.10;99.90;;;;;;6119450;23;20429;-88
2022/08/10 00:14:55;;;;;;;6.97;2.80;;;16.10;99.90;;;;;;6146213;22;20045;-89
2022/08/10 00:17:21;;;;;;;5.13;2.80;;;16.20;99.90;;;;;;6146254;22;20028;-88
2022/08/10 00:19:49;;;;;;;5.32;3.22;;;16.00;99.90;;;;;;6144549;23;20013;-88
2022/08/10 00:22:15;;;;;;;4.97;2.55;;;16.00;99.90;;;;;;6143996;23;20108;-88
2022/08/10 00:24:40;;;;;;;6.30;3.00;;;16.00;99.90;;;;;;6145700;22;20024;-88
2022/08/10 00:27:06;;;;;;;7.28;3.30;;;16.00;99.90;;;;;;6144028;22;20032;-88
2022/08/10 00:29:31;;;;;;;7.30;3.80;;;16.00;99.90;;;;;;6144342;22;20130;-88
2022/08/10 00:31:57;;;;;;;7.28;3.60;;;16.00;99.90;;;;;;6145217;23;20358;-88
2022/08/10 00:34:23;;;;;;;5.97;3.80;;;16.00;99.90;;;;;;6146329;22;20064;-88
2022/08/10 00:36:48;;;;;;;8.63;3.92;;;16.00;99.90;;;;;;6143853;23;20386;-88
2022/08/10 00:39:14;;;;;;;7.10;3.97;;;16.00;99.90;;;;;;6146200;22;20477;-88
2022/08/10 00:41:39;;;;;;;8.20;3.95;;;16.00;99.90;;;;;;6145364;22;20024;-88
2022/08/10 00:44:05;;;;;;;6.38;3.65;;;15.90;99.90;;;;;;6144208;22;20025;-88
2022/08/10 00:46:31;;;;;;;6.38;3.88;;;15.90;99.90;;;;;;6146005;22;20033;-88
2022/08/10 00:48:56;;;;;;;9.05;4.03;;;15.90;99.90;;;;;;6145656;22;20020;-89
2022/08/10 00:51:22;;;;;;;8.77;4.30;;;15.90;99.90;;;;;;6121006;23;20357;-88
2022/08/10 00:53:48;;;;;;;5.88;3.55;;;16.10;99.90;;;;;;6146554;22;20078;-89
2022/08/10 00:56:14;;;;;;;5.85;3.70;;;15.90;99.90;;;;;;6146390;22;20085;-88
2022/08/10 00:58:39;;;;;;;9.35;4.80;;;16.10;99.90;;;;;;6144844;23;20061;-88
2022/08/10 01:01:05;;;;;;;7.20;4.47;;;15.90;99.90;;;;;;6147500;23;20086;-87
2022/08/10 01:03:30;;;;;;;6.43;4.22;;;15.90;99.90;;;;;;6121290;23;20025;-88
2022/08/10 01:06:28;;;;;;;10.15;5.53;;;15.80;99.90;;;;;;6120710;23;20330;-88
2022/08/10 01:09:07;;;;;;;11.05;4.88;;;15.80;99.90;;;;;;6147062;23;20017;-88
2022/08/10 01:11:59;;;;;;;9.73;4.88;;;15.80;99.90;;;;;;6144313;23;20009;-88
2022/08/10 01:14:36;;;;;;;7.10;4.47;;;15.70;99.90;;;;;;6120540;23;20066;-88
2022/08/10 01:17:10;;;;;;;9.77;5.13;;;15.80;99.90;;;;;;6147097;22;20013;-88
2022/08/10 01:19:41;;;;;;;8.80;5.03;;;15.80;99.90;;;;;;6144725;23;20013;-88
2022/08/10 01:22:34;;;;;;;9.68;5.40;;;15.80;99.90;;;;;;6120763;23;20024;-88
2022/08/10 01:25:27;;;;;;;9.10;5.53;;;15.80;99.90;;;;;;6120106;23;20021;-88
2022/08/10 01:27:57;;;;;;;9.52;5.72;;;15.70;99.90;;;;;;6145205;23;20025;-87
2022/08/10 01:30:25;;;;;;;9.43;5.78;;;15.80;99.90;;;;;;6144918;23;20026;-88
2022/08/10 01:33:24;;;;;;;9.70;5.53;;;15.80;99.90;;;;;;6144816;22;20525;-88
2022/08/10 01:35:54;;;;;;;8.85;5.03;;;15.70;99.90;;;;;;6146491;23;20025;-88
2022/08/10 01:38:27;;;;;;;9.73;5.38;;;15.70;99.90;;;;;;6146905;23;20326;-88
2022/08/10 01:41:05;;;;;;;9.52;5.32;;;15.80;99.90;;;;;;6119819;23;20018;-88
2022/08/10 01:43:33;;;;;;;8.55;5.85;;;15.80;99.90;;;;;;6145081;23;20014;-88
2022/08/10 01:46:01;;;;;;;9.50;5.10;;;15.70;99.90;;;;;;6145345;23;20469;-88
2022/08/10 01:48:31;;;;;;;7.78;5.15;;;15.70;99.90;;;;;;6120487;23;20032;-88
2022/08/10 01:51:16;;;;;;;10.43;5.93;;;15.70;99.90;;;;;;6146542;23;20055;-88
2022/08/10 01:53:59;;;;;;;12.10;5.97;;;15.70;99.90;;;;;;6143750;23;20383;-88
2022/08/10 01:56:29;;;;;;;11.90;5.70;;;15.70;99.90;;;;;;6146466;23;20025;-88
2022/08/10 01:58:58;;;;;;;12.40;6.78;;;15.70;99.90;;;;;;6144897;23;20342;-88
2022/08/10 02:01:28;;;;;;;12.20;6.85;;;15.70;99.90;;;;;;6145477;23;20048;-87
2022/08/10 02:04:04;;;;;;;11.50;6.70;;;15.70;99.90;;;;;;6145582;23;20021;-87
2022/08/10 02:06:31;;;;;;;14.25;7.72;;;15.60;99.90;;;;;;6146659;23;20021;-88
2022/08/10 02:08:59;;;;;;;12.20;6.45;;;15.60;99.90;;;;;;6147070;23;20021;-88
2022/08/10 02:11:27;;;;;;;11.98;7.40;;;15.70;99.90;;;;;;6145560;23;20539;-89
2022/08/10 02:13:56;;;;;;;14.95;7.32;;;15.70;99.90;;;;;;6120245;23;20457;-88
2022/08/10 02:16:25;;;;;;;14.50;6.68;;;15.70;99.90;;;;;;6146807;23;20464;-88
2022/08/10 02:18:54;;;;;;;10.93;6.63;;;15.70;99.90;;;;;;6144447;23;20088;-88
2022/08/10 02:21:22;;;;;;;11.40;7.28;;;15.70;99.90;;;;;;6146241;23;20029;-88
2022/08/10 02:23:48;;;;;;;12.25;7.18;;;15.70;99.90;;;;;;6146137;23;20318;-88
2022/08/10 02:26:14;;;;;;;11.63;7.13;;;15.70;99.90;;;;;;6146665;23;20040;-87
2022/08/10 02:28:41;;;;;;;12.40;7.63;;;15.70;99.90;;;;;;6119797;23;20029;-88
2022/08/10 02:31:11;;;;;;;18.92;8.52;;;15.70;99.90;;;;;;6145610;23;20013;-88
2022/08/10 02:33:39;;;;;;;13.18;8.30;;;15.70;99.90;;;;;;6144814;23;20020;-88
2022/08/10 02:36:08;;;;;;;14.43;8.32;;;15.70;99.90;;;;;;6144774;23;20029;-88
2022/08/10 02:38:41;;;;;;;15.93;8.50;;;15.70;99.90;;;;;;6145628;23;20025;-87
2022/08/10 02:41:42;;;;;;;14.52;8.55;;;15.70;99.90;;;;;;6144958;23;20018;-88
2022/08/10 02:44:23;;;;;;;12.27;8.15;;;15.70;99.90;;;;;;6145444;23;20086;-88
2022/08/10 02:46:57;;;;;;;14.50;9.05;;;15.70;99.90;;;;;;6146316;22;20032;-87
2022/08/10 02:49:27;;;;;;;;;;;15.60;99.90;;;;;;6147317;23;20014;-88
2022/08/10 02:52:08;;;;;;;14.93;8.60;;;15.70;99.90;;;;;;6144370;23;20328;-88
2022/08/10 02:54:38;;;;;;;14.60;9.52;;;15.60;99.90;;;;;;6144437;23;20068;-88
2022/08/10 02:57:12;;;;;;;13.02;8.50;;;15.60;99.90;;;;;;6145966;23;20028;-88
2022/08/10 02:59:43;;;;;;;17.27;9.48;;;15.60;99.90;;;;;;6144444;23;20017;-88
2022/08/10 03:02:15;;;;;;;15.23;9.98;;;15.60;99.90;;;;;;6145058;23;20025;-88
2022/08/10 03:04:45;;;;;;;15.93;9.70;;;15.70;99.90;;;;;;6144056;22;20056;-88
2022/08/10 03:07:17;;;;;;;15.57;9.57;;;15.60;99.90;;;;;;6144300;22;20462;-88
2022/08/10 03:09:44;;;;;;;12.80;9.30;;;15.60;99.90;;;;;;6119575;23;20024;-88
2022/08/10 03:12:12;;;;;;;14.68;8.70;;;15.60;99.90;;;;;;6144394;23;20025;-88
2022/08/10 03:14:39;;;;;;;15.50;8.98;;;15.60;99.90;;;;;;6144522;23;20028;-88
2022/08/10 03:17:06;;;;;;;21.65;10.48;;;15.60;99.90;;;;;;6144313;23;20059;-88
2022/08/10 03:19:34;;;;;;;16.30;10.48;;;15.60;99.90;;;;;;6120086;23;20014;-87
2022/08/10 03:22:01;;;;;;;14.45;9.45;;;15.60;99.90;;;;;;6119539;23;20087;-87
2022/08/10 03:24:29;;;;;;;14.18;9.82;;;15.50;99.90;;;;;;6146355;23;20358;-88
2022/08/10 03:26:56;;;;;;;15.43;9.80;;;15.50;99.90;;;;;;6144173;23;20075;-88
2022/08/10 03:29:23;;;;;;;16.23;9.73;;;15.50;99.90;;;;;;6120328;23;20032;-88
2022/08/10 03:31:50;;;;;;;14.60;9.13;;;15.50;99.90;;;;;;6144237;23;20017;-88
2022/08/10 03:34:18;;;;;;;13.80;8.82;;;15.50;99.90;;;;;;6169845;23;20449;-88
2022/08/10 03:36:44;;;;;;;13.40;9.35;;;15.50;99.90;;;;;;6144097;23;20017;-88
2022/08/10 03:39:10;;;;;;;14.00;9.57;;;15.40;99.90;;;;;;6144445;23;20021;-88
2022/08/10 03:41:42;;;;;;;15.02;9.55;;;15.40;99.90;;;;;;6144316;23;20559;-88
2022/08/10 03:44:11;;;;;;;17.20;9.63;;;15.60;99.90;;;;;;6120090;23;20117;-88
2022/08/10 03:46:40;;;;;;;15.70;9.95;;;15.40;99.90;;;;;;6119727;23;20461;-88
2022/08/10 03:49:08;;;;;;;14.73;9.75;;;15.40;99.90;;;;;;6144000;23;20014;-88
2022/08/10 03:51:34;;;;;;;15.07;9.82;;;15.40;99.90;;;;;;6144090;23;20752;-88
2022/08/10 03:54:01;;;;;;;16.95;10.50;;;15.30;99.90;;;;;;6146455;23;20021;-88
2022/08/10 03:56:28;;;;;;;15.93;9.60;;;15.30;99.90;;;;;;6144412;23;20075;-88
2022/08/10 03:58:53;;;;;;;11.57;7.35;;;15.30;99.90;;;;;;6143979;23;20029;-88
2022/08/10 04:01:20;;;;;;;15.95;10.48;;;15.30;99.90;;;;;;6144292;23;20018;-88
2022/08/10 04:03:46;;;;;;;17.35;10.30;;;15.30;99.90;;;;;;6119658;23;20442;-88
2022/08/10 04:06:12;;;;;;;15.73;9.32;;;15.30;99.90;;;;;;6146483;23;20024;-87
2022/08/10 04:08:41;;;;;;;16.00;10.05;;;15.30;99.90;;;;;;6144436;23;20021;-88
2022/08/10 04:11:09;;;;;;;15.77;9.95;;;15.20;99.90;;;;;;6144342;23;20030;-88
2022/08/10 04:13:34;;;;;;;14.00;9.23;;;15.20;99.90;;;;;;6144534;23;20096;-88
2022/08/10 04:16:00;;;;;;;17.42;9.65;;;15.20;99.90;;;;;;6144432;23;20056;-88
2022/08/10 04:18:26;;;;;;;19.25;10.45;;;15.20;99.90;;;;;;6144303;23;20086;-88
2022/08/10 04:21:00;;;;;;;17.00;10.30;;;15.20;99.90;;;;;;6119578;23;20021;-88
2022/08/10 04:23:30;;;;;;;15.43;9.73;;;15.20;99.90;;;;;;6146408;23;20049;-88
2022/08/10 04:25:56;;;;;;;13.13;8.98;;;15.20;99.90;;;;;;6145916;22;20028;-88
2022/08/10 04:28:22;;;;;;;15.93;10.45;;;15.20;99.90;;;;;;6146046;23;20458;-88
2022/08/10 04:30:51;;;;;;;16.95;10.05;;;15.20;99.90;;;;;;6145904;23;20013;-88
2022/08/10 04:33:19;;;;;;;13.02;9.55;;;15.20;99.90;;;;;;6144988;23;20702;-88
2022/08/10 04:35:46;;;;;;;14.82;9.55;;;15.20;99.90;;;;;;6146182;23;20021;-87
2022/08/10 04:38:14;;;;;;;20.23;11.20;;;15.30;99.90;;;;;;6143961;23;20020;-88
2022/08/10 04:40:40;;;;;;;16.40;10.30;;;15.30;99.90;;;;;;6145411;23;20041;-88
2022/08/10 04:43:06;;;;;;;15.25;10.15;;;15.20;99.90;;;;;;6146157;22;20361;-88
2022/08/10 04:45:33;;;;;;;15.77;9.80;;;15.30;99.90;;;;;;6144125;23;20017;-88
2022/08/10 04:47:58;;;;;;;15.80;9.77;;;15.30;99.90;;;;;;6143470;23;20025;-88
2022/08/10 04:50:24;;;;;;;16.52;10.70;;;15.30;99.90;;;;;;6119845;23;20049;-88
2022/08/10 04:52:50;;;;;;;13.90;9.10;;;15.30;99.90;;;;;;6144012;23;20100;-88
2022/08/10 04:55:16;;;;;;;16.73;10.25;;;15.30;99.90;;;;;;6119421;23;20171;-88
2022/08/10 04:57:42;;;;;;;14.40;9.80;;;15.40;99.90;;;;;;6145518;23;20055;-89
2022/08/10 05:00:08;;;;;;;15.68;9.98;;;15.30;99.90;;;;;;6119421;23;20104;-87
2022/08/10 05:02:34;;;;;;;17.08;9.70;;;15.40;99.90;;;;;;6144720;23;20071;-88
2022/08/10 05:04:59;;;;;;;15.95;9.52;;;15.40;99.90;;;;;;6144368;23;20018;-89
2022/08/10 05:07:25;;;;;;;15.75;9.70;;;15.40;99.90;;;;;;6143698;23;20029;-87
2022/08/10 05:09:53;;;;;;;15.50;8.82;;;15.40;99.90;;;;;;6145522;23;20014;-87
2022/08/10 05:12:18;;;;;;;13.32;8.98;;;15.40;99.90;;;;;;6143971;23;20349;-88
2022/08/10 05:14:44;;;;;;;15.43;9.23;;;15.40;99.90;;;;;;6145539;23;20024;-88
2022/08/10 05:17:10;;;;;;;14.88;9.63;;;15.40;99.90;;;;;;6142907;23;20029;-88
2022/08/10 05:19:36;;;;;;;16.27;9.50;;;15.40;99.90;;;;;;6143569;23;20022;-88
2022/08/10 05:22:03;;;;;;;12.57;9.07;;;15.50;99.90;;;;;;6145388;22;20460;-88
2022/08/10 05:24:29;;;;;;;17.05;10.27;;;15.50;99.90;;;;;;6146235;23;20018;-88
2022/08/10 05:26:54;;;;;;;15.70;10.68;;;15.50;99.90;;;;;;6145119;23;20013;-88
2022/08/10 05:29:20;;;;;;;17.77;9.65;;;15.60;99.90;;;;;;6145694;23;20491;-88
2022/08/10 05:31:46;;;;;;;14.10;9.02;;;15.60;99.90;;;;;;6145000;23;20096;-88
2022/08/10 05:34:12;;;;;;;17.40;9.88;;;15.60;99.90;;;;;;6146081;22;20010;-88
2022/08/10 05:36:38;;;;;;;14.60;9.48;;;15.60;99.90;;;;;;6146599;23;20039;-88
2022/08/10 05:39:04;;;;;;;15.02;9.40;;;15.60;99.90;;;;;;6146634;23;20029;-88
2022/08/10 05:41:30;;;;;;;17.58;9.55;;;15.70;99.90;;;;;;6145271;22;20022;-88
2022/08/10 05:43:56;;;;;;;14.77;8.80;;;15.70;99.90;;;;;;6146793;23;20385;-88
2022/08/10 05:46:22;;;;;;;14.73;8.48;;;15.70;99.90;;;;;;6144562;23;20053;-88
2022/08/10 05:48:48;;;;;;;14.57;8.45;;;15.80;99.90;;;;;;6146576;22;20024;-88
2022/08/10 05:51:15;;;;;;;16.63;8.82;;;15.80;99.90;;;;;;6145467;23;20071;-88
2022/08/10 05:53:40;;;;;;;13.75;8.93;;;15.90;99.90;;;;;;6145015;23;20028;-88
2022/08/10 05:56:07;;;;;;;12.45;7.60;;;15.90;99.90;;;;;;6120724;23;20018;-88
2022/08/10 05:58:34;;;;;;;12.57;8.27;;;15.90;99.90;;;;;;6146445;23;20028;-88
2022/08/10 06:01:04;;;;;;;13.52;7.85;;;15.90;99.90;;;;;;6120082;23;20017;-88
2022/08/10 06:03:34;;;;;;;13.30;7.03;;;16.00;99.90;;;;;;6144798;23;20049;-88
2022/08/10 06:06:03;;;;;;;13.52;8.52;;;16.00;99.90;;;;;;6120667;23;20013;-88
2022/08/10 06:08:31;;;;;;;14.02;8.68;;;16.10;99.90;;;;;;6147219;23;20387;-88
2022/08/10 06:11:00;;;;;;;10.93;7.28;;;16.10;99.90;;;;;;6120438;23;20612;-88
2022/08/10 06:16:14;;;;;;;12.95;8.13;;;16.20;99.90;;;;;;6146369;23;20021;-88
2022/08/10 06:18:41;;;;;;;14.48;8.45;;;16.20;99.90;;;;;;6144640;23;20017;-88
2022/08/10 06:21:08;;;;;;;12.10;7.80;;;16.30;99.90;;;;;;6145421;23;20014;-88
2022/08/10 06:23:35;;;;;;;11.75;7.28;;;16.30;99.90;;;;;;6119669;23;20049;-89
2022/08/10 06:26:01;;;;;;;10.93;7.07;;;16.30;99.90;;;;;;6144976;22;20465;-88
2022/08/10 06:28:31;;;;;;;12.00;7.03;;;16.40;99.90;;;;;;6120038;23;20021;-88
2022/08/10 06:30:59;;;;;;;14.02;7.07;;;16.40;99.90;;;;;;6146436;23;20024;-88
2022/08/10 06:33:29;;;;;;;13.50;7.75;;;16.40;99.90;;;;;;6144874;23;20340;-88
2022/08/10 06:35:56;;;;;;;12.20;7.72;;;16.50;99.90;;;;;;6146751;22;20013;-89
2022/08/10 06:38:24;;;;;;;11.02;7.00;;;16.50;99.90;;;;;;6146801;23;20094;-88
2022/08/10 06:40:53;;;;;;;13.73;7.40;;;16.60;99.90;;;;;;6146113;23;20010;-88
2022/08/10 06:43:21;;;;;;;9.90;7.43;;;16.60;99.90;;;;;;6145619;23;20473;-88
2022/08/10 06:45:52;;;;;;;9.50;6.93;;;16.60;99.90;;;;;;6146233;23;20438;-88
2022/08/10 06:48:27;;;;;;;10.20;6.22;;;16.70;99.90;;;;;;6146121;23;20021;-88
2022/08/10 06:51:14;;;;;;;11.35;5.47;;;16.70;99.90;;;;;;6146744;23;20031;-88
2022/08/10 06:53:52;;;;;;;10.07;6.00;;;16.80;99.90;;;;;;6146355;23;20060;-88
2022/08/10 06:56:21;;;;;;;10.35;5.18;;;16.90;99.90;;;;;;6144636;22;20460;-88
2022/08/10 06:58:55;;;;;;;8.05;5.35;;;16.90;99.90;;;;;;6143616;23;20018;-88
2022/08/10 07:01:24;;;;;;;7.05;4.82;;;17.00;99.90;;;;;;6145003;22;20515;-88
2022/08/10 07:04:05;;;;;;;12.00;5.20;;;17.00;99.90;;;;;;6143922;23;20022;-89
2022/08/10 07:06:33;;;;;;;10.65;5.85;;;17.10;99.90;;;;;;6146204;22;20742;-88
2022/08/10 07:09:00;;;;;;;6.78;4.65;;;17.20;99.90;;;;;;6144793;23;20067;-88
2022/08/10 07:11:28;;;;;;;11.05;5.15;;;17.20;99.90;;;;;;6144666;23;20018;-88
2022/08/10 07:13:57;;;;;;;8.35;5.45;;;17.20;99.90;;;;;;6144045;23;20066;-88
2022/08/10 07:16:27;;;;;;;9.45;5.60;;;17.30;99.90;;;;;;6145159;23;20018;-88
2022/08/10 07:18:57;;;;;;;8.60;5.10;;;17.30;99.90;;;;;;6146244;22;20075;-88
2022/08/10 07:21:25;;;;;;;9.02;5.13;;;17.40;99.90;;;;;;6145151;23;20021;-88
2022/08/10 07:23:52;;;;;;;8.75;5.60;;;17.40;99.90;;;;;;6119459;23;20406;-88
2022/08/10 07:26:19;;;;;;;7.68;5.00;;;17.50;99.90;;;;;;6145205;23;20017;-88
2022/08/10 07:28:49;;;;;;;8.88;3.90;;;17.50;99.90;;;;;;6145702;23;20337;-88
2022/08/10 07:31:19;;;;;;;10.88;5.15;;;17.60;99.90;;;;;;6144559;23;20092;-88
2022/08/10 07:33:47;;;;;;;8.50;5.70;;;17.60;99.90;;;;;;6146415;23;20021;-88
2022/08/10 07:36:14;;;;;;;7.00;4.60;;;17.70;99.90;;;;;;6146717;23;20028;-88
2022/08/10 07:38:41;;;;;;;8.38;5.20;;;17.80;99.90;;;;;;6146180;23;20157;-88
2022/08/10 07:41:09;;;;;;;6.20;4.43;;;17.80;99.90;;;;;;6145777;23;20456;-89
2022/08/10 07:43:39;;;;;;;11.07;5.22;;;17.90;99.90;;;;;;6144284;22;20009;-88
2022/08/10 07:46:10;;;;;;;7.07;4.40;;;18.00;99.90;;;;;;6146478;23;20122;-88
2022/08/10 07:48:41;;;;;;;8.52;5.47;;;18.10;99.90;;;;;;6146547;22;20048;-88
2022/08/10 07:51:09;;;;;;;9.80;4.45;;;18.10;99.90;;;;;;6146910;23;20045;-88
2022/08/10 07:53:44;;;;;;;8.00;3.72;;;18.20;99.90;;;;;;6144357;23;20017;-89
2022/08/10 07:56:11;;;;;;;9.55;4.03;;;18.30;99.90;;;;;;6145308;23;20013;-88
2022/08/10 07:58:49;;;;;;;9.85;4.45;;;18.40;99.90;;;;;;6145138;23;20492;-89
2022/08/10 08:01:16;;;;;;;7.35;3.75;;;18.60;99.90;;;;;;6146379;23;20017;-88
2022/08/10 08:03:43;;;;;;;8.65;4.40;;;18.70;99.90;;;;;;6119480;23;20010;-89
2022/08/10 08:06:09;;;;;;;6.53;3.40;;;18.90;99.90;;;;;;6144637;23;20025;-87
2022/08/10 08:08:37;;;;;;;8.40;3.28;;;19.10;99.90;;;;;;6119612;23;20013;-88
2022/08/10 08:11:04;;;;;;;5.95;3.40;;;19.30;99.90;;;;;;6143381;23;20025;-89
2022/08/10 08:13:30;;;;;;;5.25;3.22;;;19.40;99.90;;;;;;6144544;23;20018;-88
2022/08/10 08:15:57;;;;;;;6.20;2.60;;;19.60;99.90;;;;;;6119472;23;20018;-89
2022/08/10 08:18:24;;;;;;;7.07;2.25;;;19.80;99.90;;;;;;6145091;23;20105;-89
2022/08/10 08:20:50;;;;;;;6.55;2.75;;;19.90;99.90;;;;;;6143678;23;20457;-89
2022/08/10 08:23:17;;;;;;;5.00;2.70;;;20.10;99.90;;;;;;6144506;23;20024;-89
2022/08/10 08:25:44;;;;;;;5.65;2.80;;;20.20;99.90;;;;;;6143693;23;20401;-89
2022/08/10 08:28:11;;;;;;;5.35;2.30;;;20.40;99.90;;;;;;6144701;23;20110;-89
2022/08/10 08:30:39;;;;;;;9.80;2.60;;;20.50;99.90;;;;;;6145919;23;20018;-89
2022/08/10 08:33:06;;;;;;;6.20;2.60;;;20.70;99.90;;;;;;6119755;23;20096;-88
2022/08/10 08:35:33;;;;;;;6.32;2.10;;;20.80;99.90;;;;;;6144344;23;20018;-88
2022/08/10 08:37:59;;;;;;;5.32;2.40;;;20.90;99.90;;;;;;6144252;23;20025;-89
2022/08/10 08:40:35;;;;;;;5.20;2.70;;;21.10;99.90;;;;;;6143708;23;20076;-89
2022/08/10 08:43:23;;;;;;;8.90;3.03;;;21.20;99.90;;;;;;6119672;23;20025;-90
2022/08/10 08:46:34;;;;;;;4.30;2.65;;;21.30;99.90;;;;;;6143822;23;20022;-89
2022/08/10 08:49:14;;;;;;;6.65;2.20;;;21.40;99.90;;;;;;6157070;23;20018;-89
2022/08/10 08:52:12;;;;;;;5.07;2.40;;;21.60;99.90;;;;;;6119236;23;20022;-89
2022/08/10 08:55:14;;;;;;;5.70;2.20;;;21.70;99.90;;;;;;6145050;23;20025;-89
2022/08/10 08:58:00;;;;;;;8.57;2.63;;;21.90;99.90;;;;;;6168674;23;20022;-89
2022/08/10 09:00:44;;;;;;;6.13;2.50;;;22.10;99.90;;;;;;6143734;22;20511;-89
2022/08/10 09:03:29;;;;;;;4.57;1.90;;;22.20;99.90;;;;;;6144145;23;20478;-89
2022/08/10 09:06:16;;;;;;;7.35;2.50;;;22.30;99.90;;;;;;6144427;23;20237;-89
2022/08/10 09:09:01;;;;;;;8.43;2.42;;;22.30;99.90;;;;;;6143113;23;20096;-90
2022/08/10 09:11:44;;;;;;;6.93;1.90;;;22.50;99.90;;;;;;6144962;23;20025;-89
2022/08/10 09:14:33;;;;;;;4.38;2.35;;;22.60;99.90;;;;;;6147457;23;20340;-89
2022/08/10 09:17:29;;;;;;;5.50;1.92;;;22.70;99.90;;;;;;6145462;22;20453;-89
2022/08/10 09:20:07;;;;;;;5.75;2.13;;;22.80;99.90;;;;;;6147338;22;20017;-90
2022/08/10 09:22:45;;;;;;;10.13;2.35;;;23.00;99.90;;;;;;6120100;23;20022;-89
2022/08/10 09:25:18;;;;;;;7.90;1.90;;;23.00;99.90;;;;;;6147198;22;20097;-90
2022/08/10 09:27:46;;;;;;;5.90;1.85;;;23.20;99.90;;;;;;6120244;23;20021;-89
2022/08/10 09:30:21;;;;;;;5.43;2.03;;;23.30;99.90;;;;;;6147181;23;20371;-90
2022/08/10 09:32:51;;;;;;;7.30;2.05;;;23.40;99.90;;;;;;6146797;23;20018;-90
2022/08/10 09:35:47;;;;;;;5.15;2.05;;;23.50;99.90;;;;;;6146818;23;20426;-89
2022/08/10 09:38:56;;;;;;;3.88;2.05;;;23.60;99.90;;;;;;6120086;23;20022;-89
2022/08/10 09:41:57;;;;;;;6.55;2.38;;;23.70;99.90;;;;;;6145466;22;20024;-89
2022/08/10 09:44:38;;;;;;;6.53;1.80;;;23.80;99.90;;;;;;6145289;23;20030;-89
2022/08/10 09:47:48;;;;;;;5.35;1.98;;;23.80;99.90;;;;;;6147094;23;20018;-90
2022/08/10 09:50:35;;;;;;;5.85;2.17;;;23.90;99.90;;;;;;6156358;23;20093;-89
2022/08/10 09:53:15;;;;;;;5.78;1.70;;;24.00;99.90;;;;;;6144312;23;20297;-89
2022/08/10 09:55:58;;;;;;;6.10;1.83;;;24.10;99.90;;;;;;6144564;23;20018;-89
2022/08/10 09:58:35;;;;;;;3.58;1.73;;;24.30;99.90;;;;;;6147060;23;20026;-89
2022/08/10 10:01:40;;;;;;;3.85;1.52;;;24.40;99.90;;;;;;6145216;23;20100;-89
2022/08/10 10:04:39;;;;;;;5.88;1.77;;;24.50;99.90;;;;;;6145447;23;20013;-90
2022/08/10 10:07:07;;;;;;;3.97;1.50;;;24.60;99.90;;;;;;6146640;23;20018;-89
2022/08/10 10:09:46;;;;;;;4.80;1.52;;;24.80;99.90;;;;;;6144411;22;20021;-90
2022/08/10 10:12:43;;;;;;;5.75;1.50;;;24.90;99.90;;;;;;6120564;23;20013;-90
2022/08/10 10:15:34;;;;;;;3.65;1.40;;;24.90;99.30;;;;;;6120410;23;20013;-90
2022/08/10 10:18:04;;;;;;;4.50;1.67;;;25.10;98.50;;;;;;6145011;23;20021;-90
2022/08/10 10:20:50;;;;;;;2.65;1.10;;;25.20;99.50;;;;;;6145165;23;20022;-90
2022/08/10 10:23:47;;;;;;;6.75;1.60;;;25.30;99.20;;;;;;6120482;23;20108;-89
2022/08/10 10:26:54;;;;;;;3.85;1.60;;;25.40;97.20;;;;;;6145059;23;20454;-89
2022/08/10 10:29:38;;;;;;;5.43;1.60;;;25.50;97.70;;;;;;6145251;23;20019;-89
2022/08/10 10:32:11;;;;;;;3.83;1.20;;;25.60;98.30;;;;;;6145100;23;20025;-90
2022/08/10 10:35:05;;;;;;;6.90;1.02;;;25.70;98.40;;;;;;6146598;22;20233;-89
2022/08/10 10:37:33;;;;;;;4.28;1.40;;;25.80;97.90;;;;;;6192647;23;20078;-90
2022/08/10 10:40:01;;;;;;;5.43;1.67;;;26.00;97.30;;;;;;6147082;23;20024;-90
2022/08/10 10:42:58;;;;;;;4.88;1.58;;;26.10;97.00;;;;;;6145114;22;20111;-90
2022/08/10 10:45:38;;;;;;;3.47;1.30;;;26.10;96.40;;;;;;6144973;22;20013;-89
2022/08/10 10:48:38;;;;;;;3.72;1.30;;;26.30;96.30;;;;;;6145000;22;20022;-89
2022/08/10 10:51:25;;;;;;;3.70;1.30;;;26.40;96.70;;;;;;6146393;23;20014;-90
2022/08/10 10:54:12;;;;;;;6.82;1.55;;;26.50;95.60;;;;;;6144589;23;20030;-90
2022/08/10 10:56:52;;;;;;;6.75;1.50;;;26.60;95.80;;;;;;6146124;23;20020;-89
2022/08/10 10:59:46;;;;;;;4.32;1.52;;;26.70;95.60;;;;;;6120507;23;20029;-89
2022/08/10 11:02:45;;;;;;;5.83;1.30;;;26.70;94.90;;;;;;6145154;23;20028;-90
2022/08/10 11:05:32;;;;;;;3.55;1.30;;;26.90;94.90;;;;;;6144429;23;20362;-90
2022/08/10 11:08:07;;;;;;;4.85;1.30;;;27.00;93.90;;;;;;6146460;23;20441;-90
2022/08/10 11:10:37;;;;;;;5.38;1.42;;;27.10;94.70;;;;;;6146496;22;20068;-90
2022/08/10 11:13:25;;;;;;;2.35;0.90;;;27.30;95.40;;;;;;6146718;23;20376;-90
2022/08/10 11:16:23;;;;;;;4.85;1.00;;;27.40;94.80;;;;;;6146521;23;20014;-90
2022/08/10 11:18:57;;;;;;;4.30;0.93;;;27.50;94.70;;;;;;6164243;23;20029;-90
2022/08/10 11:21:35;;;;;;;4.97;1.00;;;27.50;93.80;;;;;;6146218;23;20079;-90
2022/08/10 11:24:18;;;;;;;5.55;1.40;;;27.70;92.80;;;;;;6120595;23;20026;-90
2022/08/10 11:27:24;;;;;;;3.75;1.00;;;27.70;93.10;;;;;;6145682;23;20025;-89
2022/08/10 11:30:12;;;;;;;3.97;1.20;;;27.70;94.00;;;;;;6144677;23;20021;-89
2022/08/10 11:33:03;;;;;;;4.35;1.33;;;27.80;92.50;;;;;;6146021;23;20311;-90
2022/08/10 11:35:52;;;;;;;2.67;1.02;;;27.90;91.90;;;;;;6120383;23;20028;-90
2022/08/10 11:38:32;;;;;;;5.30;1.10;;;28.00;91.80;;;;;;6146307;23;20521;-90
2022/08/10 11:41:24;;;;;;;4.00;0.98;;;27.90;92.00;;;;;;6145006;23;20410;-90
2022/08/10 11:44:31;;;;;;;2.03;1.02;;;28.00;91.60;;;;;;6145720;23;20334;-91
2022/08/10 11:47:10;;;;;;;2.38;0.90;;;28.10;91.30;;;;;;6144017;23;20017;-90
2022/08/10 11:49:58;;;;;;;3.83;0.90;;;28.20;91.10;;;;;;6145597;23;20017;-90
2022/08/10 11:52:38;;;;;;;4.45;1.00;;;28.20;91.10;;;;;;6146624;23;20106;-90
2022/08/10 11:55:24;;;;;;;6.15;0.80;;;28.30;89.10;;;;;;6145965;23;20467;-90
2022/08/10 11:58:00;;;;;;;4.30;0.98;;;28.30;89.70;;;;;;6143848;23;20017;-90
2022/08/10 12:00:30;;;;;;;3.92;1.02;;;28.50;90.30;;;;;;6144982;23;20028;-90
2022/08/10 12:03:00;;;;;;;2.85;0.98;;;28.50;90.10;;;;;;6145564;22;20017;-89
2022/08/10 12:05:33;;;;;;;2.83;1.20;;;28.60;91.30;;;;;;6146249;23;20021;-90
2022/08/10 12:08:01;;;;;;;4.63;1.23;;;28.70;92.10;;;;;;6144480;23;20014;-90
2022/08/10 12:10:29;;;;;;;3.72;1.10;;;28.90;91.50;;;;;;6144226;23;20485;-90
2022/08/10 12:13:22;;;;;;;3.65;1.10;;;29.00;91.50;;;;;;6146098;23;20013;-90
2022/08/10 12:16:06;;;;;;;5.28;1.20;;;29.00;90.50;;;;;;6145773;23;20018;-90
2022/08/10 12:18:44;;;;;;;3.90;1.25;;;29.00;89.50;;;;;;6145859;23;20024;-90
2022/08/10 12:21:15;;;;;;;2.92;1.08;;;29.10;90.50;;;;;;6146306;23;20044;-91
2022/08/10 12:23:55;;;;;;;4.22;0.98;;;29.10;89.50;;;;;;6144420;23;20067;-90
2022/08/10 12:26:25;;;;;;;4.88;0.98;;;29.10;85.90;;;;;;6144246;22;20021;-90
2022/08/10 12:29:09;;;;;;;4.60;1.08;;;29.10;86.50;;;;;;6143722;23;20020;-90
2022/08/10 12:31:51;;;;;;;3.67;1.10;;;29.20;86.30;;;;;;6143490;23;20021;-90
2022/08/10 12:34:44;;;;;;;2.13;0.90;;;29.30;88.50;;;;;;6119555;23;20016;-91
2022/08/10 12:37:10;;;;;;;3.10;1.13;;;29.40;88.20;;;;;;6146099;22;20018;-91
2022/08/10 12:40:05;;;;;;;3.72;1.10;;;29.40;87.90;;;;;;6119316;23;20224;-90
2022/08/10 12:42:45;;;;;;;2.60;0.98;;;29.50;85.10;;;;;;6146499;23;20026;-90
2022/08/10 12:45:37;;;;;;;3.47;0.95;;;29.50;84.10;;;;;;6144535;22;20028;-90
2022/08/10 12:48:06;;;;;;;3.78;1.00;;;29.50;85.00;;;;;;6153704;23;20018;-90
2022/08/10 12:50:42;;;;;;;4.43;1.05;;;29.60;86.20;;;;;;6147120;23;20021;-91
2022/08/10 12:53:28;;;;;;;3.55;0.90;;;29.60;85.20;;;;;;6145534;22;20025;-90
2022/08/10 12:55:55;;;;;;;4.25;0.88;;;29.70;87.10;;;;;;6146247;23;20013;-90
2022/08/10 12:58:22;;;;;;;3.38;1.10;;;29.70;87.90;;;;;;6145268;23;20025;-91
2022/08/10 13:00:51;;;;;;;2.72;0.95;;;29.80;86.50;;;;;;6144740;23;20052;-90
2022/08/10 13:03:21;;;;;;;5.95;1.10;;;29.90;86.00;;;;;;6145493;23;20468;-91
2022/08/10 13:05:49;;;;;;;3.05;1.20;;;29.90;84.90;;;;;;6145094;23;20071;-90
2022/08/10 13:11:04;;;;;;;4.22;1.05;;;30.00;87.40;;;;;;6144942;23;20022;-90
2022/08/10 13:13:41;;;;;;;3.33;1.13;;;30.00;85.60;;;;;;6148074;22;20010;-90
2022/08/10 13:16:06;;;;;;;3.58;1.48;;;30.00;84.40;;;;;;6144419;23;20337;-90
2022/08/10 13:18:36;;;;;;;2.35;1.00;;;30.00;85.60;;;;;;6120872;23;20024;-90
2022/08/10 13:21:05;;;;;;;4.07;1.17;;;30.10;85.20;;;;;;6145371;23;20519;-90